Aérodrome :
LOGIN :

S'inscrire | Disclaimer

   EN    FR    IT 

 










Légende :    VFR   VFR Marginal   IFR   IFR Intensif   IFR Très Intensif
Visi : 
Plafond : 
>= 8 km
>= 3000ft
5 à 8 km
1000 à 3000 ft
1500m à 5 km
500 à 1000 ft
800 à 1500m
200 à 500 ft
< 800m
< 200 ft
Symboles :   Orages  Brouillard  Fortes neiges  Fortes précipitations  Vent > 20 kt
SIGMETs :   Divers  Orages  Givrage  Turbulence  Onde Orograph.  Cendres Volcan.







- Altitude de l'aérodrome : 1276 ft
- Code IATA : STR


EDDS - Stuttgart

DERNIER METAR :
  • 221750Z 14003KT 060V210 CAVOK 23/10 Q1013 NOSIG

METARs EXPIRÉS :
  • 221720Z 14003KT 080V180 CAVOK 25/08 Q1013 NOSIG
  • 221650Z 12003KT 060V180 CAVOK 26/07 Q1013 NOSIG
  • 221620Z 35003KT 320V020 CAVOK 26/08 Q1013 NOSIG
  • 221550Z 05003KT 360V120 CAVOK 26/07 Q1013 NOSIG
  • 221520Z 01004KT 320V050 CAVOK 26/08 Q1013 NOSIG
  • 221450Z 35008KT 310V020 CAVOK 26/09 Q1013 NOSIG

TAF TAF EDDS
Valide du 22 à 18h jusqu'au 23 à 18h UTC


221700Z 2218/2318 VRB03KT CAVOK
BECMG 2308/2310 25010KT
TEMPO 2309/2317 4500 SHRA BKN030TCU
PROB40
TEMPO 2310/2315 25015G25KT 2500 TSRA BKN010 BKN020CB
Pas de NOTAMs connus pour ce terrain.
2 SIGMETs publiés pour la FIR Langen (EDGG) :
 
Orages fréquents avec grêle
EDGG SIGMET 2 VALID 221730/221900 EDZF
EDGG LANGEN FIR FRQ TSGR FCST WI N5224 E00708 - N5219 E00732 - N5216 E00732 - N5140 E00711 - N5131 E00550 - N5224 E00644 - N5224 E00708 TOP FL370 MOV NE 30KT WKN=
Orages fréquents avec grêle
EDGG SIGMET 1 VALID 221500/221700 EDZF
EDGG LANGEN FIR FRQ TSGR OBS WI N5209 E00753 - N5042 E00852 - N5024 E00816 - N5116 E00722 - N5151 E00716 - N5209 E00753 TOP FL370 MOV NE NC=



MET'MAP, la Météo Aéronautique d'un coup d'oeil ! - Copyright ORBIFLY Décembre 2007 - Disclaimer

ORBIFLY MET'MAP TEAM :

Programmation & Développement : Alexandra Zaïnal
Conception & Développement : Baudouin d'Aumeries
Co-Programmation & Développement : Marc-Olivier Méhu
Soutien technique & logistique : Manuel Goepfert

Contact : metmap@orbifly.com




SOURCES & CREDITS :

   NOAA